Accueil
METAR-TAF:

METAR-TAF

Aéroports :

South Jersey Regional Airport

Mount Holly, New Jersey, États-Unis

latitude: 39-56-26N, longitude: 074-50-28W, altitude: 16 m

Observation

Le bulletin a été fait il y a 30 minutes, à 19:54 UTC
Vent 16 kt de ouest/nord-ouest avec des rafales jusqu'à 32 kt
Température 9°C
Humidité 40%
Pression 1001 hPa
Visibilité: 16.1 km
Quelques nuages à une hauteur de 5500 ft
Quelques nuages à une hauteur de 7000 ft
Nuages fragmentés à une hauteur de 9500 ft

METAR: KVAY 101954Z AUTO 30016G32KT 10SM FEW055 FEW070 BKN095 09/M04 A2955 RMK AO2 PK WND 29033/1929 SLP004 T00941044

Heure: 16:24 (20:24 UTC)


TAF: absent

Observations et prévisions météorologiques de plus de 4000 aéroports (messages METAR et TAF).

Les stations disponibles sont représentées par des disques jaunes et rouges sur la carte.

Passer la souris dessus pour voir le nom de la station.

Cliquer dessus pour voir les observations et prévisions météorologiques.

Pour changer de carte: cliquez sur les boutons verts avec une croix noire pour zoomer, sur le bouton vert avec un tiret pour effectuer un zoom arrière, ou sur les flèches vertes pour les cartes adjacentes.


METAR-TAF: